createdAt,value
2018-12-19T00:02:52.866Z,62.40
2018-12-19T00:07:56.119Z,62.70
2018-12-19T00:12:59.354Z,62.30
2018-12-19T00:18:02.612Z,62.50
2018-12-19T00:23:05.781Z,61.60
2018-12-19T00:28:08.947Z,61.70
2018-12-19T00:33:12.119Z,61.80
2018-12-19T00:38:15.267Z,62.40
2018-12-19T00:43:18.414Z,61.70
2018-12-19T00:48:21.583Z,61.40
2018-12-19T00:53:24.742Z,61.80
2018-12-19T00:58:28.660Z,61.90
2018-12-19T01:03:32.486Z,62.00
2018-12-19T01:08:35.647Z,61.70
2018-12-19T01:13:38.873Z,61.50
2018-12-19T01:18:42.030Z,61.40
2018-12-19T01:23:45.190Z,61.00
2018-12-19T01:28:48.484Z,61.20
2018-12-19T01:33:51.621Z,60.80
2018-12-19T01:38:54.781Z,61.10
2018-12-19T01:43:57.954Z,61.30
2018-12-19T01:49:01.097Z,61.00
2018-12-19T01:54:05.267Z,60.90
2018-12-19T01:59:08.671Z,60.80
2018-12-19T02:04:11.866Z,60.50
2018-12-19T02:09:15.505Z,60.00
2018-12-19T02:14:18.658Z,60.50
2018-12-19T02:19:21.834Z,60.60
2018-12-19T02:24:24.989Z,60.70
2018-12-19T02:29:28.133Z,60.60
2018-12-19T02:34:31.381Z,61.00
2018-12-19T02:39:36.365Z,60.00
2018-12-19T02:44:40.309Z,60.20
2018-12-19T02:49:43.589Z,60.20
2018-12-19T02:54:46.906Z,60.40
2018-12-19T02:59:50.150Z,60.40
2018-12-19T03:04:53.389Z,60.50
2018-12-19T03:09:56.650Z,60.00
2018-12-19T03:14:59.894Z,59.90
2018-12-19T03:20:03.358Z,60.20
2018-12-19T03:25:06.811Z,59.90
2018-12-19T03:30:10.193Z,60.00
2018-12-19T03:35:14.464Z,60.40
2018-12-19T03:40:17.798Z,60.20
2018-12-19T03:45:22.072Z,60.70
2018-12-19T03:50:25.303Z,60.30
2018-12-19T03:55:28.546Z,60.20
2018-12-19T04:00:31.797Z,60.20
2018-12-19T04:05:35.043Z,60.20
2018-12-19T04:10:38.298Z,60.20
2018-12-19T04:15:41.631Z,60.20
2018-12-19T04:20:44.890Z,60.70
2018-12-19T04:25:48.125Z,60.80
2018-12-19T04:30:53.197Z,61.10
2018-12-19T04:35:56.615Z,60.90
2018-12-19T04:41:00.918Z,60.80
2018-12-19T04:46:04.149Z,60.50
2018-12-19T04:51:07.394Z,60.60
2018-12-19T04:56:10.642Z,60.70
2018-12-19T05:01:13.889Z,61.40
2018-12-19T05:06:17.542Z,60.50
2018-12-19T05:11:20.777Z,60.70
2018-12-19T05:16:24.060Z,60.90
2018-12-19T05:21:27.286Z,60.80
2018-12-19T05:26:30.530Z,61.10
2018-12-19T05:31:33.790Z,60.70
2018-12-19T05:36:37.170Z,61.00
2018-12-19T05:41:40.409Z,61.00
2018-12-19T05:46:43.677Z,61.20
2018-12-19T05:51:46.959Z,61.30
2018-12-19T05:56:50.299Z,61.50
2018-12-19T06:01:53.558Z,61.60
2018-12-19T06:06:56.794Z,62.00
2018-12-19T06:12:00.073Z,61.90
2018-12-19T06:17:03.323Z,62.00
2018-12-19T06:22:06.554Z,62.00
2018-12-19T06:27:09.794Z,62.40
2018-12-19T06:32:13.886Z,62.70
2018-12-19T06:37:17.138Z,62.70
2018-12-19T06:42:20.705Z,63.00
2018-12-19T06:47:23.941Z,62.90
2018-12-19T06:52:27.203Z,63.10
2018-12-19T06:57:30.450Z,63.50
2018-12-19T07:02:33.702Z,63.50
2018-12-19T07:07:36.955Z,63.50
2018-12-19T07:12:40.178Z,63.80
2018-12-19T07:17:43.707Z,63.40
2018-12-19T07:22:46.942Z,63.80
2018-12-19T07:27:50.883Z,63.90
2018-12-19T07:32:54.122Z,63.90
2018-12-19T07:37:57.353Z,64.00
2018-12-19T07:43:00.586Z,64.50
2018-12-19T07:48:03.922Z,64.10
2018-12-19T07:53:07.149Z,64.00
2018-12-19T07:58:10.413Z,65.90
2018-12-19T08:03:13.652Z,64.40
2018-12-19T08:08:16.890Z,64.40
2018-12-19T08:13:20.129Z,64.60
2018-12-19T08:18:23.370Z,64.60
2018-12-19T08:23:26.588Z,64.30
2018-12-19T08:28:29.810Z,64.90
2018-12-19T08:33:33.050Z,64.60
2018-12-19T08:38:36.385Z,64.60
2018-12-19T08:43:40.026Z,64.80
2018-12-19T08:48:43.354Z,64.70
2018-12-19T08:53:46.605Z,64.80
2018-12-19T08:58:50.710Z,64.90
2018-12-19T09:03:54.040Z,64.80
2018-12-19T09:08:57.254Z,65.20
2018-12-19T09:14:01.297Z,65.20
2018-12-19T09:19:04.706Z,65.50
2018-12-19T09:24:07.958Z,65.80
2018-12-19T09:29:11.200Z,65.40
2018-12-19T09:34:16.539Z,65.50
2018-12-19T09:39:19.774Z,65.40
2018-12-19T09:44:23.018Z,65.80
2018-12-19T09:49:26.246Z,65.80
2018-12-19T09:54:29.034Z,66.00
2018-12-19T09:59:32.258Z,66.10
2018-12-19T10:04:35.489Z,65.90
2018-12-19T10:09:38.752Z,66.20
2018-12-19T10:14:41.994Z,65.90
2018-12-19T10:19:45.223Z,66.40
2018-12-19T10:24:54.050Z,66.10
2018-12-19T10:29:57.406Z,66.30
2018-12-19T10:35:00.653Z,66.30
2018-12-19T10:40:04.718Z,66.20
2018-12-19T10:45:09.935Z,66.10
2018-12-19T10:50:13.154Z,65.90
2018-12-19T10:55:16.494Z,66.20
2018-12-19T11:00:25.031Z,66.40
2018-12-19T11:05:28.338Z,66.30
2018-12-19T11:10:31.650Z,66.60
2018-12-19T11:15:34.887Z,66.60
2018-12-19T11:20:38.109Z,66.90
2018-12-19T11:25:41.350Z,67.20
2018-12-19T11:30:44.670Z,67.30
2018-12-19T11:35:47.904Z,66.00
2018-12-19T11:40:51.142Z,66.40
2018-12-19T11:45:54.385Z,65.90
2018-12-19T11:50:57.626Z,66.10
2018-12-19T11:56:01.753Z,66.10
2018-12-19T12:01:04.982Z,65.90
2018-12-19T12:06:08.221Z,66.00
2018-12-19T12:11:12.006Z,66.00
2018-12-19T12:16:15.786Z,65.90
2018-12-19T12:21:19.145Z,66.00
2018-12-19T12:26:22.389Z,65.70
2018-12-19T12:31:25.733Z,66.00
2018-12-19T12:36:29.066Z,71.20
2018-12-19T12:41:32.414Z,66.00
2018-12-19T12:46:35.686Z,65.60
2018-12-19T12:51:38.918Z,66.00
2018-12-19T12:56:42.170Z,66.30
2018-12-19T13:01:45.514Z,66.00
2018-12-19T13:06:48.758Z,66.10
2018-12-19T13:11:51.994Z,65.90
2018-12-19T13:16:55.229Z,65.90
2018-12-19T13:21:58.478Z,65.80
2018-12-19T13:27:01.769Z,66.00
2018-12-19T13:32:05.214Z,65.90
2018-12-19T13:37:08.438Z,67.40
2018-12-19T13:42:11.738Z,64.60
2018-12-19T13:47:14.989Z,66.00
2018-12-19T13:52:18.235Z,66.00
2018-12-19T13:57:21.476Z,66.10
2018-12-19T14:02:24.710Z,66.40
2018-12-19T14:07:27.974Z,66.20
2018-12-19T14:12:31.203Z,66.20
2018-12-19T14:17:34.422Z,65.80
2018-12-19T14:22:37.677Z,65.90
2018-12-19T14:27:40.894Z,65.50
2018-12-19T14:32:44.131Z,65.60
2018-12-19T14:37:47.359Z,65.80
2018-12-19T14:42:50.613Z,65.90
2018-12-19T14:47:53.979Z,65.60
2018-12-19T14:52:57.206Z,65.50
2018-12-19T14:58:01.919Z,65.50
2018-12-19T15:03:05.165Z,66.00
2018-12-19T15:08:08.390Z,65.30
2018-12-19T15:13:11.694Z,65.60
2018-12-19T15:18:15.244Z,65.50
2018-12-19T15:23:18.629Z,65.60
2018-12-19T15:28:21.872Z,65.30
2018-12-19T15:33:25.111Z,65.40
2018-12-19T15:38:28.454Z,65.50
2018-12-19T15:43:31.690Z,65.40
2018-12-19T15:48:34.942Z,65.10
2018-12-19T15:53:38.174Z,65.20
2018-12-19T15:58:41.401Z,65.40
2018-12-19T16:03:44.654Z,65.60
2018-12-19T16:08:47.882Z,65.10
2018-12-19T16:13:51.151Z,64.80
2018-12-19T16:18:54.387Z,64.70
2018-12-19T16:23:57.886Z,64.70
2018-12-19T16:29:01.147Z,64.50
2018-12-19T16:34:04.463Z,64.60
2018-12-19T16:39:09.077Z,64.70
2018-12-19T16:44:12.362Z,64.50
2018-12-19T16:49:15.714Z,64.60
2018-12-19T16:54:19.130Z,64.80
2018-12-19T16:59:22.382Z,64.40
2018-12-19T17:04:26.476Z,64.40
2018-12-19T17:09:30.414Z,64.60
2018-12-19T17:14:34.272Z,64.70
2018-12-19T17:19:37.677Z,65.90
2018-12-19T17:24:41.670Z,64.60
2018-12-19T17:29:46.235Z,65.40
2018-12-19T17:34:49.442Z,64.60
2018-12-19T17:39:53.582Z,65.60
2018-12-19T17:44:56.816Z,65.40
2018-12-19T17:50:00.145Z,66.00
2018-12-19T17:55:03.782Z,65.60
2018-12-19T18:00:07.295Z,65.90
2018-12-19T18:05:10.591Z,65.50
2018-12-19T18:10:13.818Z,65.70
2018-12-19T18:15:17.193Z,65.70
2018-12-19T18:20:21.271Z,65.60
2018-12-19T18:25:24.518Z,65.60
2018-12-19T18:30:27.750Z,65.70
2018-12-19T18:35:30.995Z,65.60
2018-12-19T18:40:34.248Z,65.60
2018-12-19T18:45:37.575Z,66.00
2018-12-19T18:50:41.927Z,65.70
2018-12-19T18:55:45.274Z,65.70
2018-12-19T19:00:48.663Z,65.70
2018-12-19T19:05:51.882Z,65.60
2018-12-19T19:10:55.130Z,65.30
2018-12-19T19:15:58.380Z,65.60
2018-12-19T19:21:01.613Z,65.60
2018-12-19T19:26:04.842Z,65.40
2018-12-19T19:31:08.082Z,65.30
2018-12-19T19:36:11.326Z,65.20
2018-12-19T19:41:14.718Z,65.30
2018-12-19T19:46:18.441Z,65.60
2018-12-19T19:51:21.684Z,65.30
2018-12-19T19:56:24.910Z,65.20
2018-12-19T20:01:28.149Z,66.00
2018-12-19T20:06:31.490Z,65.50
2018-12-19T20:11:34.723Z,65.30
2018-12-19T20:16:43.313Z,65.60
2018-12-19T20:21:46.646Z,65.60
2018-12-19T20:26:49.970Z,65.60
2018-12-19T20:31:53.246Z,65.70
2018-12-19T20:36:56.482Z,65.40
2018-12-19T20:41:59.718Z,65.50
2018-12-19T20:47:02.982Z,65.50
2018-12-19T20:52:06.207Z,65.40
2018-12-19T20:57:09.446Z,65.40
2018-12-19T21:02:12.896Z,65.60
2018-12-19T21:07:16.130Z,65.70
2018-12-19T21:12:19.369Z,65.60
2018-12-19T21:17:27.994Z,65.70
2018-12-19T21:22:31.211Z,65.80
2018-12-19T21:27:34.466Z,65.40
2018-12-19T21:32:37.694Z,65.60
2018-12-19T21:37:40.456Z,65.60
2018-12-19T21:42:43.811Z,65.60
2018-12-19T21:47:47.179Z,65.80
2018-12-19T21:52:50.489Z,65.50
2018-12-19T21:57:53.717Z,66.00
2018-12-19T22:02:57.044Z,65.50
2018-12-19T22:08:00.375Z,65.50
2018-12-19T22:13:03.935Z,66.00
2018-12-19T22:18:12.506Z,66.10
2018-12-19T22:23:15.916Z,65.80
2018-12-19T22:28:19.145Z,66.00
2018-12-19T22:33:22.457Z,65.70
2018-12-19T22:38:25.754Z,66.00
2018-12-19T22:43:29.009Z,66.00
2018-12-19T22:48:32.376Z,65.70
2018-12-19T22:53:35.715Z,66.10
2018-12-19T22:58:39.032Z,65.80
2018-12-19T23:03:47.666Z,66.10
2018-12-19T23:08:51.889Z,66.00
2018-12-19T23:13:55.256Z,66.40
2018-12-19T23:18:58.586Z,66.20
2018-12-19T23:24:01.811Z,66.10
2018-12-19T23:29:05.664Z,66.20
2018-12-19T23:34:09.410Z,66.30
2018-12-19T23:39:12.731Z,66.70
2018-12-19T23:44:22.592Z,66.30
2018-12-19T23:49:25.452Z,66.80
2018-12-19T23:54:29.133Z,67.30
2018-12-19T23:59:32.884Z,65.30
